sensor_id;sensor_type;location;lat;lon;timestamp;temperature;humidity
2447;DHT22;26430;48.818;9.244;2023-02-28T00:02:20;-0.40;99.90
2447;DHT22;26430;48.818;9.244;2023-02-28T00:04:45;-0.50;99.90
2447;DHT22;26430;48.818;9.244;2023-02-28T00:07:18;-0.50;99.90
2447;DHT22;26430;48.818;9.244;2023-02-28T00:09:44;-0.50;99.90
2447;DHT22;26430;48.818;9.244;2023-02-28T00:12:10;-0.60;99.90
2447;DHT22;26430;48.818;9.244;2023-02-28T00:14:40;-0.50;99.90
2447;DHT22;26430;48.818;9.244;2023-02-28T00:17:06;-0.60;99.90
2447;DHT22;26430;48.818;9.244;2023-02-28T00:19:31;-0.50;99.90
2447;DHT22;26430;48.818;9.244;2023-02-28T00:21:57;-0.50;99.90
2447;DHT22;26430;48.818;9.244;2023-02-28T00:24:22;-0.50;99.90
2447;DHT22;26430;48.818;9.244;2023-02-28T00:26:48;-0.50;99.90
2447;DHT22;26430;48.818;9.244;2023-02-28T00:29:14;-0.50;99.90
2447;DHT22;26430;48.818;9.244;2023-02-28T00:31:39;-0.50;99.90
2447;DHT22;26430;48.818;9.244;2023-02-28T00:34:05;-0.50;99.90
2447;DHT22;26430;48.818;9.244;2023-02-28T00:36:31;-0.50;99.90
2447;DHT22;26430;48.818;9.244;2023-02-28T00:38:56;-0.50;99.90
2447;DHT22;26430;48.818;9.244;2023-02-28T00:41:22;-0.50;99.90
2447;DHT22;26430;48.818;9.244;2023-02-28T00:43:48;-0.50;99.90
2447;DHT22;26430;48.818;9.244;2023-02-28T00:46:13;-0.50;99.90
2447;DHT22;26430;48.818;9.244;2023-02-28T00:48:39;-0.50;99.90
2447;DHT22;26430;48.818;9.244;2023-02-28T00:51:05;-0.40;99.90
2447;DHT22;26430;48.818;9.244;2023-02-28T00:53:31;-0.40;99.90
2447;DHT22;26430;48.818;9.244;2023-02-28T00:55:58;-0.50;99.90
2447;DHT22;26430;48.818;9.244;2023-02-28T00:58:24;-0.60;99.90
2447;DHT22;26430;48.818;9.244;2023-02-28T01:00:51;-0.60;99.90
2447;DHT22;26430;48.818;9.244;2023-02-28T01:03:19;-0.60;99.90
2447;DHT22;26430;48.818;9.244;2023-02-28T01:05:45;-0.60;99.90
2447;DHT22;26430;48.818;9.244;2023-02-28T01:08:11;-0.60;99.90
2447;DHT22;26430;48.818;9.244;2023-02-28T01:10:37;-0.60;99.90
2447;DHT22;26430;48.818;9.244;2023-02-28T01:13:04;-0.70;99.90
2447;DHT22;26430;48.818;9.244;2023-02-28T01:15:29;-0.70;99.90
2447;DHT22;26430;48.818;9.244;2023-02-28T01:17:57;-0.60;99.90
2447;DHT22;26430;48.818;9.244;2023-02-28T01:20:23;-0.60;99.90
2447;DHT22;26430;48.818;9.244;2023-02-28T01:22:49;-0.70;99.90
2447;DHT22;26430;48.818;9.244;2023-02-28T01:25:15;-0.70;99.90
2447;DHT22;26430;48.818;9.244;2023-02-28T01:27:40;-0.70;99.90
2447;DHT22;26430;48.818;9.244;2023-02-28T01:30:09;-0.70;99.90
2447;DHT22;26430;48.818;9.244;2023-02-28T01:32:36;-0.70;99.90
2447;DHT22;26430;48.818;9.244;2023-02-28T01:35:01;-0.70;99.90
2447;DHT22;26430;48.818;9.244;2023-02-28T01:37:27;-0.60;99.90
2447;DHT22;26430;48.818;9.244;2023-02-28T01:39:53;-0.70;99.90
2447;DHT22;26430;48.818;9.244;2023-02-28T01:42:19;-0.60;99.90
2447;DHT22;26430;48.818;9.244;2023-02-28T01:45:04;-0.60;99.90
2447;DHT22;26430;48.818;9.244;2023-02-28T01:47:38;-0.60;99.90
2447;DHT22;26430;48.818;9.244;2023-02-28T01:50:09;-0.70;99.90
2447;DHT22;26430;48.818;9.244;2023-02-28T01:52:37;-0.70;99.90
2447;DHT22;26430;48.818;9.244;2023-02-28T01:55:04;-0.70;99.90
2447;DHT22;26430;48.818;9.244;2023-02-28T01:57:35;-0.80;99.90
2447;DHT22;26430;48.818;9.244;2023-02-28T02:00:18;-0.80;99.90
2447;DHT22;26430;48.818;9.244;2023-02-28T02:02:48;-0.90;99.90
2447;DHT22;26430;48.818;9.244;2023-02-28T02:05:20;-0.90;99.90
2447;DHT22;26430;48.818;9.244;2023-02-28T02:07:48;-0.90;99.90
2447;DHT22;26430;48.818;9.244;2023-02-28T02:10:33;-0.90;99.90
2447;DHT22;26430;48.818;9.244;2023-02-28T02:19:02;-0.80;99.90
2447;DHT22;26430;48.818;9.244;2023-02-28T02:26:47;-0.70;99.90
2447;DHT22;26430;48.818;9.244;2023-02-28T02:40:25;-0.60;99.90
2447;DHT22;26430;48.818;9.244;2023-02-28T02:42:58;-0.60;99.90
2447;DHT22;26430;48.818;9.244;2023-02-28T02:45:34;-0.70;99.90
2447;DHT22;26430;48.818;9.244;2023-02-28T02:48:06;-0.60;99.90
2447;DHT22;26430;48.818;9.244;2023-02-28T02:50:38;-0.60;99.90
2447;DHT22;26430;48.818;9.244;2023-02-28T02:53:06;-0.60;99.90
2447;DHT22;26430;48.818;9.244;2023-02-28T02:55:35;-0.60;99.90
2447;DHT22;26430;48.818;9.244;2023-02-28T02:58:04;-0.70;99.90
2447;DHT22;26430;48.818;9.244;2023-02-28T03:00:37;-0.80;99.90
2447;DHT22;26430;48.818;9.244;2023-02-28T03:03:04;-0.70;99.90
2447;DHT22;26430;48.818;9.244;2023-02-28T03:05:51;-0.60;99.90
2447;DHT22;26430;48.818;9.244;2023-02-28T03:08:17;-0.60;99.90
2447;DHT22;26430;48.818;9.244;2023-02-28T03:10:48;-0.60;99.90
2447;DHT22;26430;48.818;9.244;2023-02-28T03:30:05;-0.50;99.90
2447;DHT22;26430;48.818;9.244;2023-02-28T03:37:38;-0.50;99.90
2447;DHT22;26430;48.818;9.244;2023-02-28T03:40:15;-0.50;99.90
2447;DHT22;26430;48.818;9.244;2023-02-28T03:42:46;-0.50;99.90
2447;DHT22;26430;48.818;9.244;2023-02-28T03:45:19;-0.60;99.90
2447;DHT22;26430;48.818;9.244;2023-02-28T03:47:55;-0.50;99.90
2447;DHT22;26430;48.818;9.244;2023-02-28T03:50:29;-0.30;99.90
2447;DHT22;26430;48.818;9.244;2023-02-28T03:55:55;-0.50;99.90
2447;DHT22;26430;48.818;9.244;2023-02-28T03:58:38;-0.30;99.90
2447;DHT22;26430;48.818;9.244;2023-02-28T04:03:37;-0.40;99.90
2447;DHT22;26430;48.818;9.244;2023-02-28T04:06:05;-0.40;99.90
2447;DHT22;26430;48.818;9.244;2023-02-28T04:08:32;-0.40;99.90
2447;DHT22;26430;48.818;9.244;2023-02-28T04:11:16;-0.30;99.90
2447;DHT22;26430;48.818;9.244;2023-02-28T04:13:42;-0.30;99.90
2447;DHT22;26430;48.818;9.244;2023-02-28T04:16:09;-0.30;99.90
2447;DHT22;26430;48.818;9.244;2023-02-28T04:18:38;-0.40;99.90
2447;DHT22;26430;48.818;9.244;2023-02-28T04:21:04;-0.40;99.90
2447;DHT22;26430;48.818;9.244;2023-02-28T04:23:30;-0.30;99.90
2447;DHT22;26430;48.818;9.244;2023-02-28T04:25:56;-0.30;99.90
2447;DHT22;26430;48.818;9.244;2023-02-28T04:28:21;-0.20;99.90
2447;DHT22;26430;48.818;9.244;2023-02-28T04:30:47;-0.20;99.90
2447;DHT22;26430;48.818;9.244;2023-02-28T04:33:13;-0.20;99.90
2447;DHT22;26430;48.818;9.244;2023-02-28T04:35:38;-0.10;99.90
2447;DHT22;26430;48.818;9.244;2023-02-28T04:38:04;0.10;99.90
2447;DHT22;26430;48.818;9.244;2023-02-28T04:40:30;0.10;99.90
2447;DHT22;26430;48.818;9.244;2023-02-28T04:42:55;0.00;99.90
2447;DHT22;26430;48.818;9.244;2023-02-28T04:45:21;0.00;99.90
2447;DHT22;26430;48.818;9.244;2023-02-28T04:47:46;0.00;99.90
2447;DHT22;26430;48.818;9.244;2023-02-28T04:50:12;-0.20;99.90
2447;DHT22;26430;48.818;9.244;2023-02-28T04:52:38;-0.20;99.90
2447;DHT22;26430;48.818;9.244;2023-02-28T04:55:04;-0.20;99.90
2447;DHT22;26430;48.818;9.244;2023-02-28T04:57:29;0.00;99.90
2447;DHT22;26430;48.818;9.244;2023-02-28T04:59:55;0.00;99.90
2447;DHT22;26430;48.818;9.244;2023-02-28T05:02:21;0.00;99.90
2447;DHT22;26430;48.818;9.244;2023-02-28T05:04:46;-0.10;99.90
2447;DHT22;26430;48.818;9.244;2023-02-28T05:07:12;-0.10;99.90
2447;DHT22;26430;48.818;9.244;2023-02-28T05:09:37;0.10;99.90
2447;DHT22;26430;48.818;9.244;2023-02-28T05:12:03;0.00;99.90
2447;DHT22;26430;48.818;9.244;2023-02-28T05:14:28;0.00;99.90
2447;DHT22;26430;48.818;9.244;2023-02-28T05:16:54;-0.10;99.90
2447;DHT22;26430;48.818;9.244;2023-02-28T05:19:20;-0.10;99.90
2447;DHT22;26430;48.818;9.244;2023-02-28T05:21:54;-0.10;99.90
2447;DHT22;26430;48.818;9.244;2023-02-28T05:24:20;0.00;99.90
2447;DHT22;26430;48.818;9.244;2023-02-28T05:26:51;-0.10;99.90
2447;DHT22;26430;48.818;9.244;2023-02-28T05:29:18;-0.10;99.90
2447;DHT22;26430;48.818;9.244;2023-02-28T05:31:43;-0.10;99.90
2447;DHT22;26430;48.818;9.244;2023-02-28T05:34:09;-0.10;99.90
2447;DHT22;26430;48.818;9.244;2023-02-28T05:36:38;0.00;99.90
2447;DHT22;26430;48.818;9.244;2023-02-28T05:39:05;-0.10;99.90
2447;DHT22;26430;48.818;9.244;2023-02-28T05:41:31;-0.10;99.90
2447;DHT22;26430;48.818;9.244;2023-02-28T05:43:57;-0.10;99.90
2447;DHT22;26430;48.818;9.244;2023-02-28T05:46:23;0.00;99.90
2447;DHT22;26430;48.818;9.244;2023-02-28T05:48:49;-0.10;99.90
2447;DHT22;26430;48.818;9.244;2023-02-28T05:51:16;-0.10;99.90
2447;DHT22;26430;48.818;9.244;2023-02-28T05:53:42;-0.10;99.90
2447;DHT22;26430;48.818;9.244;2023-02-28T05:56:08;-0.10;99.90
2447;DHT22;26430;48.818;9.244;2023-02-28T05:58:33;-0.10;99.90
2447;DHT22;26430;48.818;9.244;2023-02-28T06:01:11;0.00;99.90
2447;DHT22;26430;48.818;9.244;2023-02-28T06:03:44;0.00;99.90
2447;DHT22;26430;48.818;9.244;2023-02-28T06:06:10;0.00;99.90
2447;DHT22;26430;48.818;9.244;2023-02-28T06:08:35;0.00;99.90
2447;DHT22;26430;48.818;9.244;2023-02-28T06:11:04;0.10;99.90
2447;DHT22;26430;48.818;9.244;2023-02-28T06:13:30;0.10;99.90
2447;DHT22;26430;48.818;9.244;2023-02-28T06:15:55;-0.10;99.90
2447;DHT22;26430;48.818;9.244;2023-02-28T06:18:21;-0.10;99.90
2447;DHT22;26430;48.818;9.244;2023-02-28T06:20:56;-0.20;99.90
2447;DHT22;26430;48.818;9.244;2023-02-28T06:23:22;-0.10;99.90
2447;DHT22;26430;48.818;9.244;2023-02-28T06:25:47;0.00;99.90
2447;DHT22;26430;48.818;9.244;2023-02-28T06:28:14;0.10;99.90
2447;DHT22;26430;48.818;9.244;2023-02-28T06:30:40;0.00;99.90
2447;DHT22;26430;48.818;9.244;2023-02-28T06:33:06;0.10;99.90
2447;DHT22;26430;48.818;9.244;2023-02-28T06:35:31;0.10;99.90
2447;DHT22;26430;48.818;9.244;2023-02-28T06:37:57;0.00;99.90
2447;DHT22;26430;48.818;9.244;2023-02-28T06:40:23;0.10;99.90
2447;DHT22;26430;48.818;9.244;2023-02-28T06:42:49;0.00;99.90
2447;DHT22;26430;48.818;9.244;2023-02-28T06:45:14;0.10;99.90
2447;DHT22;26430;48.818;9.244;2023-02-28T06:47:41;0.20;99.90
2447;DHT22;26430;48.818;9.244;2023-02-28T06:50:09;0.20;99.90
2447;DHT22;26430;48.818;9.244;2023-02-28T06:52:34;0.20;99.90
2447;DHT22;26430;48.818;9.244;2023-02-28T06:55:04;0.20;99.90
2447;DHT22;26430;48.818;9.244;2023-02-28T06:57:31;0.10;99.90
2447;DHT22;26430;48.818;9.244;2023-02-28T07:00:02;0.20;99.90
2447;DHT22;26430;48.818;9.244;2023-02-28T07:02:29;0.20;99.90
2447;DHT22;26430;48.818;9.244;2023-02-28T07:04:54;0.20;99.90
2447;DHT22;26430;48.818;9.244;2023-02-28T07:07:20;0.20;99.90
2447;DHT22;26430;48.818;9.244;2023-02-28T07:09:46;0.30;99.90
2447;DHT22;26430;48.818;9.244;2023-02-28T07:12:11;0.40;99.90
2447;DHT22;26430;48.818;9.244;2023-02-28T07:14:37;0.40;99.90
2447;DHT22;26430;48.818;9.244;2023-02-28T07:17:03;0.40;99.90
2447;DHT22;26430;48.818;9.244;2023-02-28T07:19:29;0.40;99.90
2447;DHT22;26430;48.818;9.244;2023-02-28T07:21:54;0.50;99.90
2447;DHT22;26430;48.818;9.244;2023-02-28T07:24:20;0.60;99.90
2447;DHT22;26430;48.818;9.244;2023-02-28T07:26:46;0.70;99.90
2447;DHT22;26430;48.818;9.244;2023-02-28T07:29:12;0.60;99.90
2447;DHT22;26430;48.818;9.244;2023-02-28T07:31:37;0.60;99.90
2447;DHT22;26430;48.818;9.244;2023-02-28T07:34:03;0.60;99.90
2447;DHT22;26430;48.818;9.244;2023-02-28T07:36:28;0.70;99.90
2447;DHT22;26430;48.818;9.244;2023-02-28T07:38:54;0.60;99.90
2447;DHT22;26430;48.818;9.244;2023-02-28T07:41:21;0.60;99.90
2447;DHT22;26430;48.818;9.244;2023-02-28T07:43:47;0.60;99.90
2447;DHT22;26430;48.818;9.244;2023-02-28T07:46:15;0.70;99.90
2447;DHT22;26430;48.818;9.244;2023-02-28T07:48:41;0.70;99.90
2447;DHT22;26430;48.818;9.244;2023-02-28T07:51:07;0.80;99.90
2447;DHT22;26430;48.818;9.244;2023-02-28T07:53:32;0.80;99.90
2447;DHT22;26430;48.818;9.244;2023-02-28T07:56:00;0.70;99.90
2447;DHT22;26430;48.818;9.244;2023-02-28T07:58:28;0.70;99.90
2447;DHT22;26430;48.818;9.244;2023-02-28T08:00:54;0.60;99.90
2447;DHT22;26430;48.818;9.244;2023-02-28T08:03:21;0.70;99.90
2447;DHT22;26430;48.818;9.244;2023-02-28T08:05:48;0.80;99.90
2447;DHT22;26430;48.818;9.244;2023-02-28T08:08:17;0.80;99.90
2447;DHT22;26430;48.818;9.244;2023-02-28T08:10:43;0.90;99.90
2447;DHT22;26430;48.818;9.244;2023-02-28T08:13:09;1.00;99.90
2447;DHT22;26430;48.818;9.244;2023-02-28T08:15:34;0.90;99.90
2447;DHT22;26430;48.818;9.244;2023-02-28T08:18:00;0.90;99.90
2447;DHT22;26430;48.818;9.244;2023-02-28T08:20:26;1.00;99.90
2447;DHT22;26430;48.818;9.244;2023-02-28T08:22:52;1.00;99.90
2447;DHT22;26430;48.818;9.244;2023-02-28T08:25:18;1.10;99.90
2447;DHT22;26430;48.818;9.244;2023-02-28T08:27:44;1.30;99.90
2447;DHT22;26430;48.818;9.244;2023-02-28T08:30:11;1.20;99.90
2447;DHT22;26430;48.818;9.244;2023-02-28T08:32:37;1.20;99.90
2447;DHT22;26430;48.818;9.244;2023-02-28T08:35:03;1.30;99.90
2447;DHT22;26430;48.818;9.244;2023-02-28T08:37:29;1.40;99.90
2447;DHT22;26430;48.818;9.244;2023-02-28T08:39:54;1.50;99.90
2447;DHT22;26430;48.818;9.244;2023-02-28T08:42:20;1.40;99.90
2447;DHT22;26430;48.818;9.244;2023-02-28T08:44:46;1.30;99.90
2447;DHT22;26430;48.818;9.244;2023-02-28T08:47:11;1.10;99.90
2447;DHT22;26430;48.818;9.244;2023-02-28T08:49:37;1.20;99.90
2447;DHT22;26430;48.818;9.244;2023-02-28T08:52:03;1.10;99.90
2447;DHT22;26430;48.818;9.244;2023-02-28T08:54:28;1.20;99.90
2447;DHT22;26430;48.818;9.244;2023-02-28T08:56:56;1.30;99.90
2447;DHT22;26430;48.818;9.244;2023-02-28T08:59:22;1.40;99.90
2447;DHT22;26430;48.818;9.244;2023-02-28T09:01:48;1.30;99.90
2447;DHT22;26430;48.818;9.244;2023-02-28T09:04:14;1.40;99.90
2447;DHT22;26430;48.818;9.244;2023-02-28T09:06:39;1.30;99.90
2447;DHT22;26430;48.818;9.244;2023-02-28T09:09:05;1.10;99.90
2447;DHT22;26430;48.818;9.244;2023-02-28T09:11:33;1.10;99.90
2447;DHT22;26430;48.818;9.244;2023-02-28T09:14:00;1.10;99.90
2447;DHT22;26430;48.818;9.244;2023-02-28T09:16:26;1.30;99.90
2447;DHT22;26430;48.818;9.244;2023-02-28T09:18:52;1.50;99.90
2447;DHT22;26430;48.818;9.244;2023-02-28T09:21:18;1.50;99.90
2447;DHT22;26430;48.818;9.244;2023-02-28T09:23:46;1.60;99.90
2447;DHT22;26430;48.818;9.244;2023-02-28T09:26:17;1.80;99.90
2447;DHT22;26430;48.818;9.244;2023-02-28T09:28:43;1.90;99.90
2447;DHT22;26430;48.818;9.244;2023-02-28T09:31:18;1.50;99.90
2447;DHT22;26430;48.818;9.244;2023-02-28T09:33:50;1.80;99.90
2447;DHT22;26430;48.818;9.244;2023-02-28T09:36:15;1.90;99.90
2447;DHT22;26430;48.818;9.244;2023-02-28T09:38:41;2.10;99.90
2447;DHT22;26430;48.818;9.244;2023-02-28T09:41:14;1.90;99.90
2447;DHT22;26430;48.818;9.244;2023-02-28T09:43:43;2.00;99.90
2447;DHT22;26430;48.818;9.244;2023-02-28T09:46:40;2.10;99.90
2447;DHT22;26430;48.818;9.244;2023-02-28T09:49:12;2.20;99.90
2447;DHT22;26430;48.818;9.244;2023-02-28T09:54:18;2.10;99.90
2447;DHT22;26430;48.818;9.244;2023-02-28T09:57:07;2.00;99.90
2447;DHT22;26430;48.818;9.244;2023-02-28T10:05:23;2.00;99.90
2447;DHT22;26430;48.818;9.244;2023-02-28T10:08:15;2.50;99.90
2447;DHT22;26430;48.818;9.244;2023-02-28T10:10:45;2.60;99.90
2447;DHT22;26430;48.818;9.244;2023-02-28T10:15:41;2.50;99.90
2447;DHT22;26430;48.818;9.244;2023-02-28T10:18:12;2.70;99.90
2447;DHT22;26430;48.818;9.244;2023-02-28T10:20:40;3.00;99.90
2447;DHT22;26430;48.818;9.244;2023-02-28T10:23:23;2.80;99.90
2447;DHT22;26430;48.818;9.244;2023-02-28T10:26:11;2.80;99.90
2447;DHT22;26430;48.818;9.244;2023-02-28T10:28:37;2.60;99.90
2447;DHT22;26430;48.818;9.244;2023-02-28T10:31:03;2.80;99.90
2447;DHT22;26430;48.818;9.244;2023-02-28T10:33:31;2.90;99.90
2447;DHT22;26430;48.818;9.244;2023-02-28T10:35:58;2.70;99.90
2447;DHT22;26430;48.818;9.244;2023-02-28T10:38:26;2.90;99.90
2447;DHT22;26430;48.818;9.244;2023-02-28T10:41:07;3.30;99.90
2447;DHT22;26430;48.818;9.244;2023-02-28T10:43:33;3.50;99.90
2447;DHT22;26430;48.818;9.244;2023-02-28T10:48:36;3.50;99.90
2447;DHT22;26430;48.818;9.244;2023-02-28T10:51:04;3.70;99.90
2447;DHT22;26430;48.818;9.244;2023-02-28T10:53:37;4.10;99.90
2447;DHT22;26430;48.818;9.244;2023-02-28T10:58:58;4.20;99.90
2447;DHT22;26430;48.818;9.244;2023-02-28T11:03:58;4.40;99.90
2447;DHT22;26430;48.818;9.244;2023-02-28T11:06:30;4.80;99.90
2447;DHT22;26430;48.818;9.244;2023-02-28T11:09:04;4.60;99.90
2447;DHT22;26430;48.818;9.244;2023-02-28T11:11:42;4.80;99.90
2447;DHT22;26430;48.818;9.244;2023-02-28T11:14:24;5.40;99.90
2447;DHT22;26430;48.818;9.244;2023-02-28T11:16:51;5.70;99.90
2447;DHT22;26430;48.818;9.244;2023-02-28T11:19:22;6.10;99.90
2447;DHT22;26430;48.818;9.244;2023-02-28T11:21:57;6.30;99.50
2447;DHT22;26430;48.818;9.244;2023-02-28T11:24:31;6.30;99.90
2447;DHT22;26430;48.818;9.244;2023-02-28T11:26:59;6.60;99.80
2447;DHT22;26430;48.818;9.244;2023-02-28T11:29:34;6.90;98.50
2447;DHT22;26430;48.818;9.244;2023-02-28T11:34:35;6.70;98.10
2447;DHT22;26430;48.818;9.244;2023-02-28T11:37:03;6.80;97.00
2447;DHT22;26430;48.818;9.244;2023-02-28T11:39:34;7.10;97.40
2447;DHT22;26430;48.818;9.244;2023-02-28T11:42:16;6.80;96.70
2447;DHT22;26430;48.818;9.244;2023-02-28T11:50:26;7.70;95.50
2447;DHT22;26430;48.818;9.244;2023-02-28T11:53:01;8.00;94.90
2447;DHT22;26430;48.818;9.244;2023-02-28T12:06:29;7.90;92.50
2447;DHT22;26430;48.818;9.244;2023-02-28T12:10:01;8.10;92.10
2447;DHT22;26430;48.818;9.244;2023-02-28T12:12:16;8.60;92.20
2447;DHT22;26430;48.818;9.244;2023-02-28T12:28:40;8.20;92.30
2447;DHT22;26430;48.818;9.244;2023-02-28T12:31:35;7.70;91.30
2447;DHT22;26430;48.818;9.244;2023-02-28T12:34:05;8.40;92.20
2447;DHT22;26430;48.818;9.244;2023-02-28T12:36:33;8.70;91.30
2447;DHT22;26430;48.818;9.244;2023-02-28T12:39:11;8.70;90.90
2447;DHT22;26430;48.818;9.244;2023-02-28T12:44:25;9.10;88.60
2447;DHT22;26430;48.818;9.244;2023-02-28T12:46:56;8.80;88.10
2447;DHT22;26430;48.818;9.244;2023-02-28T12:49:29;9.00;90.00
2447;DHT22;26430;48.818;9.244;2023-02-28T12:51:59;9.20;90.10
2447;DHT22;26430;48.818;9.244;2023-02-28T12:59:32;9.00;88.80
2447;DHT22;26430;48.818;9.244;2023-02-28T13:02:26;8.80;87.00
2447;DHT22;26430;48.818;9.244;2023-02-28T13:05:17;9.00;87.90
2447;DHT22;26430;48.818;9.244;2023-02-28T13:08:28;9.00;88.10
2447;DHT22;26430;48.818;9.244;2023-02-28T13:10:56;8.80;87.80
2447;DHT22;26430;48.818;9.244;2023-02-28T13:13:28;8.30;86.80
2447;DHT22;26430;48.818;9.244;2023-02-28T13:16:08;8.20;87.50
2447;DHT22;26430;48.818;9.244;2023-02-28T13:21:01;8.70;87.90
2447;DHT22;26430;48.818;9.244;2023-02-28T13:26:17;8.50;87.40
2447;DHT22;26430;48.818;9.244;2023-02-28T13:31:21;8.40;87.70
2447;DHT22;26430;48.818;9.244;2023-02-28T13:38:42;8.50;86.50
2447;DHT22;26430;48.818;9.244;2023-02-28T13:41:47;8.00;85.90
2447;DHT22;26430;48.818;9.244;2023-02-28T14:06:33;8.30;86.60
2447;DHT22;26430;48.818;9.244;2023-02-28T14:09:15;8.10;87.30
2447;DHT22;26430;48.818;9.244;2023-02-28T14:11:43;8.50;85.80
2447;DHT22;26430;48.818;9.244;2023-02-28T14:14:52;8.40;85.50
2447;DHT22;26430;48.818;9.244;2023-02-28T14:16:55;8.30;84.10
2447;DHT22;26430;48.818;9.244;2023-02-28T14:19:27;8.40;85.50
2447;DHT22;26430;48.818;9.244;2023-02-28T14:27:47;8.40;85.50
2447;DHT22;26430;48.818;9.244;2023-02-28T14:30:49;7.80;85.30
2447;DHT22;26430;48.818;9.244;2023-02-28T14:33:26;8.00;86.40
2447;DHT22;26430;48.818;9.244;2023-02-28T14:38:42;7.60;87.30
2447;DHT22;26430;48.818;9.244;2023-02-28T14:41:28;7.80;89.00
2447;DHT22;26430;48.818;9.244;2023-02-28T14:44:00;7.80;89.40
2447;DHT22;26430;48.818;9.244;2023-02-28T14:46:35;7.80;87.90
2447;DHT22;26430;48.818;9.244;2023-02-28T14:49:01;7.80;87.50
2447;DHT22;26430;48.818;9.244;2023-02-28T14:51:29;7.50;87.80
2447;DHT22;26430;48.818;9.244;2023-02-28T14:54:00;7.60;89.50
2447;DHT22;26430;48.818;9.244;2023-02-28T14:56:49;7.50;89.10
2447;DHT22;26430;48.818;9.244;2023-02-28T14:59:31;7.50;88.70
2447;DHT22;26430;48.818;9.244;2023-02-28T15:02:21;7.70;87.50
2447;DHT22;26430;48.818;9.244;2023-02-28T15:04:59;7.70;89.40
2447;DHT22;26430;48.818;9.244;2023-02-28T15:07:26;7.70;87.10
2447;DHT22;26430;48.818;9.244;2023-02-28T15:12:37;7.40;89.50
2447;DHT22;26430;48.818;9.244;2023-02-28T15:15:05;7.50;89.30
2447;DHT22;26430;48.818;9.244;2023-02-28T15:17:31;7.50;90.30
2447;DHT22;26430;48.818;9.244;2023-02-28T15:19:57;7.60;89.50
2447;DHT22;26430;48.818;9.244;2023-02-28T15:22:35;7.50;89.50
2447;DHT22;26430;48.818;9.244;2023-02-28T15:25:02;7.20;90.00
2447;DHT22;26430;48.818;9.244;2023-02-28T15:27:32;7.10;90.00
2447;DHT22;26430;48.818;9.244;2023-02-28T15:30:00;7.20;89.80
2447;DHT22;26430;48.818;9.244;2023-02-28T15:32:36;6.90;90.20
2447;DHT22;26430;48.818;9.244;2023-02-28T15:35:29;6.80;90.80
2447;DHT22;26430;48.818;9.244;2023-02-28T15:38:02;7.10;90.80
2447;DHT22;26430;48.818;9.244;2023-02-28T15:40:32;7.10;90.70
2447;DHT22;26430;48.818;9.244;2023-02-28T15:45:45;6.50;90.90
2447;DHT22;26430;48.818;9.244;2023-02-28T15:48:22;6.50;90.90
2447;DHT22;26430;48.818;9.244;2023-02-28T15:50:52;6.50;90.80
2447;DHT22;26430;48.818;9.244;2023-02-28T15:53:32;6.30;91.00
2447;DHT22;26430;48.818;9.244;2023-02-28T15:56:04;6.20;91.40
2447;DHT22;26430;48.818;9.244;2023-02-28T15:58:31;6.60;91.20
2447;DHT22;26430;48.818;9.244;2023-02-28T16:01:17;6.80;91.20
2447;DHT22;26430;48.818;9.244;2023-02-28T16:03:49;6.80;91.30
2447;DHT22;26430;48.818;9.244;2023-02-28T16:08:47;6.90;91.00
2447;DHT22;26430;48.818;9.244;2023-02-28T16:11:14;6.50;91.60
2447;DHT22;26430;48.818;9.244;2023-02-28T16:13:40;6.70;91.50
2447;DHT22;26430;48.818;9.244;2023-02-28T16:16:06;6.50;91.70
2447;DHT22;26430;48.818;9.244;2023-02-28T16:18:32;6.30;91.90
2447;DHT22;26430;48.818;9.244;2023-02-28T16:20:57;6.20;92.20
2447;DHT22;26430;48.818;9.244;2023-02-28T16:23:23;6.20;92.00
2447;DHT22;26430;48.818;9.244;2023-02-28T16:25:48;6.10;91.50
2447;DHT22;26430;48.818;9.244;2023-02-28T16:28:24;5.90;92.00
2447;DHT22;26430;48.818;9.244;2023-02-28T16:30:53;5.90;92.50
2447;DHT22;26430;48.818;9.244;2023-02-28T16:33:19;5.80;92.00
2447;DHT22;26430;48.818;9.244;2023-02-28T16:35:45;5.90;92.30
2447;DHT22;26430;48.818;9.244;2023-02-28T16:38:10;5.90;92.70
2447;DHT22;26430;48.818;9.244;2023-02-28T16:40:36;5.70;92.70
2447;DHT22;26430;48.818;9.244;2023-02-28T16:43:07;5.70;92.90
2447;DHT22;26430;48.818;9.244;2023-02-28T16:45:35;5.80;92.80
2447;DHT22;26430;48.818;9.244;2023-02-28T16:48:00;5.90;92.70
2447;DHT22;26430;48.818;9.244;2023-02-28T16:50:29;5.70;92.70
2447;DHT22;26430;48.818;9.244;2023-02-28T16:52:56;5.70;93.00
2447;DHT22;26430;48.818;9.244;2023-02-28T16:55:25;5.60;92.90
2447;DHT22;26430;48.818;9.244;2023-02-28T16:57:54;5.50;93.10
2447;DHT22;26430;48.818;9.244;2023-02-28T17:00:21;5.70;92.90
2447;DHT22;26430;48.818;9.244;2023-02-28T17:02:46;5.70;92.90
2447;DHT22;26430;48.818;9.244;2023-02-28T17:05:13;5.60;93.00
2447;DHT22;26430;48.818;9.244;2023-02-28T17:07:41;5.50;93.40
2447;DHT22;26430;48.818;9.244;2023-02-28T17:10:19;5.50;93.30
2447;DHT22;26430;48.818;9.244;2023-02-28T17:12:45;5.30;93.70
2447;DHT22;26430;48.818;9.244;2023-02-28T17:15:12;5.00;94.40
2447;DHT22;26430;48.818;9.244;2023-02-28T17:17:39;4.90;94.50
2447;DHT22;26430;48.818;9.244;2023-02-28T17:20:06;4.80;95.20
2447;DHT22;26430;48.818;9.244;2023-02-28T17:22:32;4.70;95.00
2447;DHT22;26430;48.818;9.244;2023-02-28T17:24:58;4.70;95.10
2447;DHT22;26430;48.818;9.244;2023-02-28T17:27:24;4.60;95.60
2447;DHT22;26430;48.818;9.244;2023-02-28T17:29:50;4.60;95.80
2447;DHT22;26430;48.818;9.244;2023-02-28T17:32:15;4.50;96.20
2447;DHT22;26430;48.818;9.244;2023-02-28T17:34:41;4.40;96.40
2447;DHT22;26430;48.818;9.244;2023-02-28T17:37:08;4.30;96.90
2447;DHT22;26430;48.818;9.244;2023-02-28T17:39:34;4.30;97.00
2447;DHT22;26430;48.818;9.244;2023-02-28T17:42:00;4.30;96.90
2447;DHT22;26430;48.818;9.244;2023-02-28T17:44:25;4.20;97.40
2447;DHT22;26430;48.818;9.244;2023-02-28T17:46:51;4.30;97.60
2447;DHT22;26430;48.818;9.244;2023-02-28T17:49:18;4.10;97.70
2447;DHT22;26430;48.818;9.244;2023-02-28T17:51:44;4.10;97.80
2447;DHT22;26430;48.818;9.244;2023-02-28T17:54:09;4.00;97.90
2447;DHT22;26430;48.818;9.244;2023-02-28T17:56:35;3.90;98.10
2447;DHT22;26430;48.818;9.244;2023-02-28T17:59:01;3.90;98.30
2447;DHT22;26430;48.818;9.244;2023-02-28T18:01:27;4.00;98.60
2447;DHT22;26430;48.818;9.244;2023-02-28T18:03:53;3.90;98.50
2447;DHT22;26430;48.818;9.244;2023-02-28T18:06:25;3.90;98.90
2447;DHT22;26430;48.818;9.244;2023-02-28T18:08:53;3.80;99.00
2447;DHT22;26430;48.818;9.244;2023-02-28T18:11:20;3.80;99.00
2447;DHT22;26430;48.818;9.244;2023-02-28T18:13:47;3.60;99.40
2447;DHT22;26430;48.818;9.244;2023-02-28T18:16:14;3.50;99.80
2447;DHT22;26430;48.818;9.244;2023-02-28T18:18:40;3.40;99.90
2447;DHT22;26430;48.818;9.244;2023-02-28T18:21:08;3.30;99.90
2447;DHT22;26430;48.818;9.244;2023-02-28T18:23:34;3.10;99.90
2447;DHT22;26430;48.818;9.244;2023-02-28T18:26:00;2.80;99.90
2447;DHT22;26430;48.818;9.244;2023-02-28T18:28:26;2.90;99.90
2447;DHT22;26430;48.818;9.244;2023-02-28T18:30:52;3.00;99.90
2447;DHT22;26430;48.818;9.244;2023-02-28T18:33:18;3.00;99.90
2447;DHT22;26430;48.818;9.244;2023-02-28T18:35:44;3.00;99.90
2447;DHT22;26430;48.818;9.244;2023-02-28T18:38:13;3.00;99.90
2447;DHT22;26430;48.818;9.244;2023-02-28T18:40:40;3.00;99.90
2447;DHT22;26430;48.818;9.244;2023-02-28T18:43:07;2.90;99.90
2447;DHT22;26430;48.818;9.244;2023-02-28T18:45:37;2.80;99.90
2447;DHT22;26430;48.818;9.244;2023-02-28T18:48:03;2.80;99.90
2447;DHT22;26430;48.818;9.244;2023-02-28T18:50:29;2.80;99.90
2447;DHT22;26430;48.818;9.244;2023-02-28T18:52:55;2.70;99.90